sensor_id;sensor_type;location;lat;lon;timestamp;P1;durP1;ratioP1;P2;durP2;ratioP2
23588;SDS011;11972;48.078;11.876;2023-03-21T00:00:40;2.97;;;1.92;;
23588;SDS011;11972;48.078;11.876;2023-03-21T00:04:40;2.17;;;1.98;;
23588;SDS011;11972;48.078;11.876;2023-03-21T00:08:40;1.80;;;1.70;;
23588;SDS011;11972;48.078;11.876;2023-03-21T00:12:41;1.85;;;1.73;;
23588;SDS011;11972;48.078;11.876;2023-03-21T00:16:41;3.70;;;1.70;;
23588;SDS011;11972;48.078;11.876;2023-03-21T00:20:44;2.15;;;1.65;;
23588;SDS011;11972;48.078;11.876;2023-03-21T00:24:55;2.45;;;1.95;;
23588;SDS011;11972;48.078;11.876;2023-03-21T00:28:55;1.80;;;1.70;;
23588;SDS011;11972;48.078;11.876;2023-03-21T00:32:56;1.75;;;1.38;;
23588;SDS011;11972;48.078;11.876;2023-03-21T00:36:56;1.67;;;1.58;;
23588;SDS011;11972;48.078;11.876;2023-03-21T00:40:56;2.17;;;1.73;;
23588;SDS011;11972;48.078;11.876;2023-03-21T00:44:57;2.45;;;1.60;;
23588;SDS011;11972;48.078;11.876;2023-03-21T00:48:57;3.15;;;1.83;;
23588;SDS011;11972;48.078;11.876;2023-03-21T00:52:57;4.10;;;2.00;;
23588;SDS011;11972;48.078;11.876;2023-03-21T00:56:58;4.15;;;2.42;;
23588;SDS011;11972;48.078;11.876;2023-03-21T01:00:58;2.03;;;1.75;;
23588;SDS011;11972;48.078;11.876;2023-03-21T01:05:01;2.75;;;2.55;;
23588;SDS011;11972;48.078;11.876;2023-03-21T01:09:02;3.55;;;2.05;;
23588;SDS011;11972;48.078;11.876;2023-03-21T01:13:02;1.88;;;1.70;;
23588;SDS011;11972;48.078;11.876;2023-03-21T01:17:03;2.90;;;2.13;;
23588;SDS011;11972;48.078;11.876;2023-03-21T01:21:05;2.17;;;1.98;;
23588;SDS011;11972;48.078;11.876;2023-03-21T01:25:12;3.47;;;2.10;;
23588;SDS011;11972;48.078;11.876;2023-03-21T01:29:13;3.90;;;2.30;;
23588;SDS011;11972;48.078;11.876;2023-03-21T01:33:13;2.50;;;2.30;;
23588;SDS011;11972;48.078;11.876;2023-03-21T01:37:15;2.03;;;1.83;;
23588;SDS011;11972;48.078;11.876;2023-03-21T01:41:24;2.50;;;1.73;;
23588;SDS011;11972;48.078;11.876;2023-03-21T01:50:25;1.60;;;1.50;;
23588;SDS011;11972;48.078;11.876;2023-03-21T01:54:28;2.08;;;1.98;;
23588;SDS011;11972;48.078;11.876;2023-03-21T01:58:31;1.90;;;1.60;;
23588;SDS011;11972;48.078;11.876;2023-03-21T02:02:33;2.55;;;1.70;;
23588;SDS011;11972;48.078;11.876;2023-03-21T02:06:38;1.95;;;1.40;;
23588;SDS011;11972;48.078;11.876;2023-03-21T02:10:42;2.08;;;1.98;;
23588;SDS011;11972;48.078;11.876;2023-03-21T02:14:47;3.25;;;1.73;;
23588;SDS011;11972;48.078;11.876;2023-03-21T02:18:55;3.13;;;2.00;;
23588;SDS011;11972;48.078;11.876;2023-03-21T02:23:13;3.72;;;2.33;;
23588;SDS011;11972;48.078;11.876;2023-03-21T02:27:49;2.25;;;2.00;;
23588;SDS011;11972;48.078;11.876;2023-03-21T02:32:12;3.55;;;2.10;;
23588;SDS011;11972;48.078;11.876;2023-03-21T02:45:21;3.05;;;1.88;;
23588;SDS011;11972;48.078;11.876;2023-03-21T02:49:26;1.70;;;1.42;;
23588;SDS011;11972;48.078;11.876;2023-03-21T02:53:31;3.42;;;1.60;;
23588;SDS011;11972;48.078;11.876;2023-03-21T02:57:35;3.67;;;2.20;;
23588;SDS011;11972;48.078;11.876;2023-03-21T03:01:36;4.75;;;2.53;;
23588;SDS011;11972;48.078;11.876;2023-03-21T03:05:40;3.20;;;2.30;;
23588;SDS011;11972;48.078;11.876;2023-03-21T03:26:58;2.47;;;2.03;;
23588;SDS011;11972;48.078;11.876;2023-03-21T03:31:06;2.00;;;1.90;;
23588;SDS011;11972;48.078;11.876;2023-03-21T03:35:07;2.30;;;2.10;;
23588;SDS011;11972;48.078;11.876;2023-03-21T03:39:09;2.40;;;2.00;;
23588;SDS011;11972;48.078;11.876;2023-03-21T03:43:12;2.30;;;1.77;;
23588;SDS011;11972;48.078;11.876;2023-03-21T03:47:28;2.58;;;2.10;;
23588;SDS011;11972;48.078;11.876;2023-03-21T03:51:39;2.97;;;1.92;;
23588;SDS011;11972;48.078;11.876;2023-03-21T03:55:47;2.70;;;1.70;;
23588;SDS011;11972;48.078;11.876;2023-03-21T03:59:49;2.33;;;1.83;;
23588;SDS011;11972;48.078;11.876;2023-03-21T04:03:49;2.67;;;2.28;;
23588;SDS011;11972;48.078;11.876;2023-03-21T04:07:50;2.30;;;1.83;;
23588;SDS011;11972;48.078;11.876;2023-03-21T04:11:50;2.67;;;2.10;;
23588;SDS011;11972;48.078;11.876;2023-03-21T04:15:50;2.30;;;2.10;;
23588;SDS011;11972;48.078;11.876;2023-03-21T04:19:51;3.35;;;2.00;;
23588;SDS011;11972;48.078;11.876;2023-03-21T04:23:51;3.30;;;1.77;;
23588;SDS011;11972;48.078;11.876;2023-03-21T04:27:54;2.30;;;1.58;;
23588;SDS011;11972;48.078;11.876;2023-03-21T04:31:55;2.47;;;1.60;;
23588;SDS011;11972;48.078;11.876;2023-03-21T04:35:55;2.90;;;2.10;;
23588;SDS011;11972;48.078;11.876;2023-03-21T04:39:58;2.85;;;1.50;;
23588;SDS011;11972;48.078;11.876;2023-03-21T04:43:58;5.00;;;1.70;;
23588;SDS011;11972;48.078;11.876;2023-03-21T04:47:58;2.95;;;1.70;;
23588;SDS011;11972;48.078;11.876;2023-03-21T04:51:59;1.70;;;1.42;;
23588;SDS011;11972;48.078;11.876;2023-03-21T04:55:59;1.63;;;1.50;;
23588;SDS011;11972;48.078;11.876;2023-03-21T04:59:59;2.00;;;1.90;;
23588;SDS011;11972;48.078;11.876;2023-03-21T05:04:00;1.75;;;1.50;;
23588;SDS011;11972;48.078;11.876;2023-03-21T05:08:02;3.78;;;2.20;;
23588;SDS011;11972;48.078;11.876;2023-03-21T05:12:03;2.35;;;2.10;;
23588;SDS011;11972;48.078;11.876;2023-03-21T05:16:04;2.08;;;1.60;;
23588;SDS011;11972;48.078;11.876;2023-03-21T05:20:05;1.63;;;1.40;;
23588;SDS011;11972;48.078;11.876;2023-03-21T05:24:08;1.50;;;1.38;;
23588;SDS011;11972;48.078;11.876;2023-03-21T05:28:12;2.97;;;1.52;;
23588;SDS011;11972;48.078;11.876;2023-03-21T05:32:12;2.05;;;1.88;;
23588;SDS011;11972;48.078;11.876;2023-03-21T05:36:13;2.30;;;1.73;;
23588;SDS011;11972;48.078;11.876;2023-03-21T05:40:14;1.73;;;1.40;;
23588;SDS011;11972;48.078;11.876;2023-03-21T05:44:15;1.35;;;1.25;;
23588;SDS011;11972;48.078;11.876;2023-03-21T05:48:15;2.67;;;1.73;;
23588;SDS011;11972;48.078;11.876;2023-03-21T05:52:15;2.72;;;1.90;;
23588;SDS011;11972;48.078;11.876;2023-03-21T05:56:16;2.63;;;1.50;;
23588;SDS011;11972;48.078;11.876;2023-03-21T06:00:16;5.10;;;2.00;;
23588;SDS011;11972;48.078;11.876;2023-03-21T06:04:17;3.20;;;2.90;;
23588;SDS011;11972;48.078;11.876;2023-03-21T06:08:18;3.03;;;1.80;;
23588;SDS011;11972;48.078;11.876;2023-03-21T06:12:18;2.30;;;1.83;;
23588;SDS011;11972;48.078;11.876;2023-03-21T06:16:18;2.67;;;1.60;;
23588;SDS011;11972;48.078;11.876;2023-03-21T06:20:19;2.08;;;1.70;;
23588;SDS011;11972;48.078;11.876;2023-03-21T06:24:19;2.40;;;1.50;;
23588;SDS011;11972;48.078;11.876;2023-03-21T06:28:20;2.47;;;2.10;;
23588;SDS011;11972;48.078;11.876;2023-03-21T06:32:21;2.70;;;2.00;;
23588;SDS011;11972;48.078;11.876;2023-03-21T06:36:21;2.60;;;1.70;;
23588;SDS011;11972;48.078;11.876;2023-03-21T06:40:21;1.85;;;1.63;;
23588;SDS011;11972;48.078;11.876;2023-03-21T06:44:22;3.78;;;1.52;;
23588;SDS011;11972;48.078;11.876;2023-03-21T06:48:23;2.33;;;1.67;;
23588;SDS011;11972;48.078;11.876;2023-03-21T06:52:23;2.92;;;1.55;;
23588;SDS011;11972;48.078;11.876;2023-03-21T06:56:24;2.40;;;1.27;;
23588;SDS011;11972;48.078;11.876;2023-03-21T07:00:24;2.97;;;1.90;;
23588;SDS011;11972;48.078;11.876;2023-03-21T07:04:25;1.73;;;1.48;;
23588;SDS011;11972;48.078;11.876;2023-03-21T07:08:26;2.35;;;1.80;;
23588;SDS011;11972;48.078;11.876;2023-03-21T07:12:26;3.30;;;1.60;;
23588;SDS011;11972;48.078;11.876;2023-03-21T07:16:26;2.83;;;1.80;;
23588;SDS011;11972;48.078;11.876;2023-03-21T07:20:26;2.20;;;1.65;;
23588;SDS011;11972;48.078;11.876;2023-03-21T07:24:27;2.60;;;2.00;;
23588;SDS011;11972;48.078;11.876;2023-03-21T07:28:27;1.95;;;1.85;;
23588;SDS011;11972;48.078;11.876;2023-03-21T07:32:33;1.80;;;1.70;;
23588;SDS011;11972;48.078;11.876;2023-03-21T07:36:34;1.70;;;1.60;;
23588;SDS011;11972;48.078;11.876;2023-03-21T07:40:35;2.35;;;2.03;;
23588;SDS011;11972;48.078;11.876;2023-03-21T07:44:36;2.47;;;2.28;;
23588;SDS011;11972;48.078;11.876;2023-03-21T07:48:36;2.45;;;2.20;;
23588;SDS011;11972;48.078;11.876;2023-03-21T07:52:37;2.47;;;2.28;;
23588;SDS011;11972;48.078;11.876;2023-03-21T07:56:37;3.90;;;2.45;;
23588;SDS011;11972;48.078;11.876;2023-03-21T08:00:38;2.40;;;2.17;;
23588;SDS011;11972;48.078;11.876;2023-03-21T08:04:38;2.50;;;2.30;;
23588;SDS011;11972;48.078;11.876;2023-03-21T08:08:39;4.07;;;2.33;;
23588;SDS011;11972;48.078;11.876;2023-03-21T08:12:39;3.33;;;2.27;;
23588;SDS011;11972;48.078;11.876;2023-03-21T08:16:39;2.92;;;2.60;;
23588;SDS011;11972;48.078;11.876;2023-03-21T08:20:40;2.53;;;2.27;;
23588;SDS011;11972;48.078;11.876;2023-03-21T08:24:40;4.10;;;2.20;;
23588;SDS011;11972;48.078;11.876;2023-03-21T08:28:40;2.53;;;2.33;;
23588;SDS011;11972;48.078;11.876;2023-03-21T08:32:41;2.53;;;2.17;;
23588;SDS011;11972;48.078;11.876;2023-03-21T08:36:41;2.47;;;2.25;;
23588;SDS011;11972;48.078;11.876;2023-03-21T08:40:42;3.80;;;2.42;;
23588;SDS011;11972;48.078;11.876;2023-03-21T08:44:43;2.35;;;2.15;;
23588;SDS011;11972;48.078;11.876;2023-03-21T08:48:43;2.50;;;2.30;;
23588;SDS011;11972;48.078;11.876;2023-03-21T08:52:43;2.30;;;2.10;;
23588;SDS011;11972;48.078;11.876;2023-03-21T08:56:44;2.25;;;2.05;;
23588;SDS011;11972;48.078;11.876;2023-03-21T09:00:44;2.38;;;2.17;;
23588;SDS011;11972;48.078;11.876;2023-03-21T09:04:45;2.30;;;2.10;;
23588;SDS011;11972;48.078;11.876;2023-03-21T09:08:46;2.38;;;2.10;;
23588;SDS011;11972;48.078;11.876;2023-03-21T09:12:48;2.58;;;2.38;;
23588;SDS011;11972;48.078;11.876;2023-03-21T09:16:50;2.40;;;2.20;;
23588;SDS011;11972;48.078;11.876;2023-03-21T09:20:51;2.33;;;2.13;;
23588;SDS011;11972;48.078;11.876;2023-03-21T09:24:52;2.47;;;2.28;;
23588;SDS011;11972;48.078;11.876;2023-03-21T09:28:53;2.28;;;1.90;;
23588;SDS011;11972;48.078;11.876;2023-03-21T09:32:54;2.47;;;2.10;;
23588;SDS011;11972;48.078;11.876;2023-03-21T09:36:55;3.53;;;2.10;;
23588;SDS011;11972;48.078;11.876;2023-03-21T09:45:06;2.58;;;1.80;;
23588;SDS011;11972;48.078;11.876;2023-03-21T09:49:18;1.90;;;1.80;;
23588;SDS011;11972;48.078;11.876;2023-03-21T09:53:26;2.00;;;1.90;;
23588;SDS011;11972;48.078;11.876;2023-03-21T09:57:33;2.38;;;1.90;;
23588;SDS011;11972;48.078;11.876;2023-03-21T10:01:39;1.70;;;1.60;;
23588;SDS011;11972;48.078;11.876;2023-03-21T10:05:44;1.90;;;1.80;;
23588;SDS011;11972;48.078;11.876;2023-03-21T10:09:47;2.05;;;1.75;;
23588;SDS011;11972;48.078;11.876;2023-03-21T10:13:52;1.70;;;1.60;;
23588;SDS011;11972;48.078;11.876;2023-03-21T10:17:57;2.38;;;1.52;;
23588;SDS011;11972;48.078;11.876;2023-03-21T10:22:00;2.03;;;1.90;;
23588;SDS011;11972;48.078;11.876;2023-03-21T10:26:01;2.20;;;1.70;;
23588;SDS011;11972;48.078;11.876;2023-03-21T10:30:06;1.50;;;1.40;;
23588;SDS011;11972;48.078;11.876;2023-03-21T10:34:15;1.90;;;1.52;;
23588;SDS011;11972;48.078;11.876;2023-03-21T10:38:20;2.17;;;1.50;;
23588;SDS011;11972;48.078;11.876;2023-03-21T10:42:24;2.03;;;1.40;;
23588;SDS011;11972;48.078;11.876;2023-03-21T10:46:26;1.70;;;1.60;;
23588;SDS011;11972;48.078;11.876;2023-03-21T10:50:26;2.20;;;2.10;;
23588;SDS011;11972;48.078;11.876;2023-03-21T10:54:30;1.70;;;1.60;;
23588;SDS011;11972;48.078;11.876;2023-03-21T10:58:33;4.10;;;2.20;;
23588;SDS011;11972;48.078;11.876;2023-03-21T11:02:38;1.95;;;1.80;;
23588;SDS011;11972;48.078;11.876;2023-03-21T11:06:40;2.13;;;1.90;;
23588;SDS011;11972;48.078;11.876;2023-03-21T11:15:29;2.08;;;1.98;;
23588;SDS011;11972;48.078;11.876;2023-03-21T11:19:32;1.60;;;1.50;;
23588;SDS011;11972;48.078;11.876;2023-03-21T11:23:36;2.08;;;1.30;;
23588;SDS011;11972;48.078;11.876;2023-03-21T11:27:46;3.20;;;1.70;;
23588;SDS011;11972;48.078;11.876;2023-03-21T11:31:48;1.95;;;1.75;;
23588;SDS011;11972;48.078;11.876;2023-03-21T11:36:04;2.05;;;1.55;;
23588;SDS011;11972;48.078;11.876;2023-03-21T11:40:24;1.90;;;1.80;;
23588;SDS011;11972;48.078;11.876;2023-03-21T11:44:31;1.70;;;1.60;;
23588;SDS011;11972;48.078;11.876;2023-03-21T11:48:35;2.85;;;1.70;;
23588;SDS011;11972;48.078;11.876;2023-03-21T11:52:42;1.70;;;1.60;;
23588;SDS011;11972;48.078;11.876;2023-03-21T11:56:53;1.73;;;1.63;;
23588;SDS011;11972;48.078;11.876;2023-03-21T12:01:06;1.35;;;1.25;;
23588;SDS011;11972;48.078;11.876;2023-03-21T12:05:26;1.60;;;1.27;;
23588;SDS011;11972;48.078;11.876;2023-03-21T12:09:43;1.95;;;1.85;;
23588;SDS011;11972;48.078;11.876;2023-03-21T12:18:19;1.80;;;1.70;;
23588;SDS011;11972;48.078;11.876;2023-03-21T12:35:42;1.35;;;1.20;;
23588;SDS011;11972;48.078;11.876;2023-03-21T12:39:51;1.52;;;1.38;;
23588;SDS011;11972;48.078;11.876;2023-03-21T12:52:18;1.40;;;1.30;;
23588;SDS011;11972;48.078;11.876;2023-03-21T12:57:10;1.63;;;1.30;;
23588;SDS011;11972;48.078;11.876;2023-03-21T13:00:56;1.45;;;1.35;;
23588;SDS011;11972;48.078;11.876;2023-03-21T13:09:28;1.27;;;1.17;;
23588;SDS011;11972;48.078;11.876;2023-03-21T13:13:44;1.42;;;1.33;;
23588;SDS011;11972;48.078;11.876;2023-03-21T13:17:53;1.38;;;1.15;;
23588;SDS011;11972;48.078;11.876;2023-03-21T13:26:31;1.23;;;1.13;;
23588;SDS011;11972;48.078;11.876;2023-03-21T13:30:36;1.30;;;1.20;;
23588;SDS011;11972;48.078;11.876;2023-03-21T13:34:37;1.40;;;1.13;;
23588;SDS011;11972;48.078;11.876;2023-03-21T13:38:39;3.53;;;1.35;;
23588;SDS011;11972;48.078;11.876;2023-03-21T13:42:43;1.10;;;1.00;;
23588;SDS011;11972;48.078;11.876;2023-03-21T13:46:59;0.77;;;0.77;;
23588;SDS011;11972;48.078;11.876;2023-03-21T13:51:04;1.02;;;0.85;;
23588;SDS011;11972;48.078;11.876;2023-03-21T13:55:12;1.10;;;0.90;;
23588;SDS011;11972;48.078;11.876;2023-03-21T13:59:17;1.42;;;1.30;;
23588;SDS011;11972;48.078;11.876;2023-03-21T14:03:18;1.90;;;1.00;;
23588;SDS011;11972;48.078;11.876;2023-03-21T14:07:21;1.30;;;1.00;;
23588;SDS011;11972;48.078;11.876;2023-03-21T14:11:25;0.95;;;0.82;;
23588;SDS011;11972;48.078;11.876;2023-03-21T14:15:29;0.85;;;0.85;;
23588;SDS011;11972;48.078;11.876;2023-03-21T14:19:37;0.73;;;0.70;;
23588;SDS011;11972;48.078;11.876;2023-03-21T14:23:37;3.55;;;1.00;;
23588;SDS011;11972;48.078;11.876;2023-03-21T14:27:38;0.60;;;0.60;;
23588;SDS011;11972;48.078;11.876;2023-03-21T14:31:43;0.80;;;0.70;;
23588;SDS011;11972;48.078;11.876;2023-03-21T14:35:46;1.02;;;0.50;;
23588;SDS011;11972;48.078;11.876;2023-03-21T14:39:55;0.68;;;0.50;;
23588;SDS011;11972;48.078;11.876;2023-03-21T14:48:12;1.60;;;1.02;;
23588;SDS011;11972;48.078;11.876;2023-03-21T14:52:17;1.95;;;1.20;;
23588;SDS011;11972;48.078;11.876;2023-03-21T14:56:22;1.77;;;1.55;;
23588;SDS011;11972;48.078;11.876;2023-03-21T15:00:28;16.40;;;9.77;;
23588;SDS011;11972;48.078;11.876;2023-03-21T15:04:30;4.50;;;2.13;;
23588;SDS011;11972;48.078;11.876;2023-03-21T15:08:31;1.83;;;1.10;;
23588;SDS011;11972;48.078;11.876;2023-03-21T15:12:32;2.65;;;1.20;;
23588;SDS011;11972;48.078;11.876;2023-03-21T15:16:32;2.03;;;1.15;;
23588;SDS011;11972;48.078;11.876;2023-03-21T15:20:34;2.78;;;1.40;;
23588;SDS011;11972;48.078;11.876;2023-03-21T15:24:38;1.77;;;1.40;;
23588;SDS011;11972;48.078;11.876;2023-03-21T15:28:43;1.52;;;1.33;;
23588;SDS011;11972;48.078;11.876;2023-03-21T15:32:45;2.00;;;1.30;;
23588;SDS011;11972;48.078;11.876;2023-03-21T15:36:47;2.10;;;1.30;;
23588;SDS011;11972;48.078;11.876;2023-03-21T15:40:48;2.00;;;1.33;;
23588;SDS011;11972;48.078;11.876;2023-03-21T15:44:51;1.10;;;1.00;;
23588;SDS011;11972;48.078;11.876;2023-03-21T15:49:05;2.80;;;1.33;;
23588;SDS011;11972;48.078;11.876;2023-03-21T15:53:15;2.55;;;1.33;;
23588;SDS011;11972;48.078;11.876;2023-03-21T15:57:21;2.03;;;1.20;;
23588;SDS011;11972;48.078;11.876;2023-03-21T16:01:23;2.22;;;1.30;;
23588;SDS011;11972;48.078;11.876;2023-03-21T16:05:26;4.15;;;1.48;;
23588;SDS011;11972;48.078;11.876;2023-03-21T16:09:47;1.42;;;1.25;;
23588;SDS011;11972;48.078;11.876;2023-03-21T16:13:47;2.35;;;1.20;;
23588;SDS011;11972;48.078;11.876;2023-03-21T16:17:53;3.00;;;1.15;;
23588;SDS011;11972;48.078;11.876;2023-03-21T16:21:55;2.45;;;1.10;;
23588;SDS011;11972;48.078;11.876;2023-03-21T16:25:57;3.13;;;1.10;;
23588;SDS011;11972;48.078;11.876;2023-03-21T16:29:57;3.08;;;1.70;;
23588;SDS011;11972;48.078;11.876;2023-03-21T16:33:58;1.83;;;1.60;;
23588;SDS011;11972;48.078;11.876;2023-03-21T16:38:00;2.53;;;1.00;;
23588;SDS011;11972;48.078;11.876;2023-03-21T16:42:02;1.20;;;0.90;;
23588;SDS011;11972;48.078;11.876;2023-03-21T16:46:02;1.63;;;1.10;;
23588;SDS011;11972;48.078;11.876;2023-03-21T16:50:10;1.45;;;1.00;;
23588;SDS011;11972;48.078;11.876;2023-03-21T16:54:20;2.60;;;0.93;;
23588;SDS011;11972;48.078;11.876;2023-03-21T16:58:20;3.08;;;1.30;;
23588;SDS011;11972;48.078;11.876;2023-03-21T17:02:21;2.00;;;1.40;;
23588;SDS011;11972;48.078;11.876;2023-03-21T17:06:25;2.83;;;1.20;;
23588;SDS011;11972;48.078;11.876;2023-03-21T17:10:28;2.80;;;0.70;;
23588;SDS011;11972;48.078;11.876;2023-03-21T17:14:29;3.15;;;0.80;;
23588;SDS011;11972;48.078;11.876;2023-03-21T17:18:30;3.85;;;0.80;;
23588;SDS011;11972;48.078;11.876;2023-03-21T17:22:30;3.70;;;1.10;;
23588;SDS011;11972;48.078;11.876;2023-03-21T17:26:30;1.77;;;1.30;;
23588;SDS011;11972;48.078;11.876;2023-03-21T17:30:32;3.83;;;1.02;;
23588;SDS011;11972;48.078;11.876;2023-03-21T17:34:33;3.72;;;1.08;;
23588;SDS011;11972;48.078;11.876;2023-03-21T17:38:34;2.42;;;0.88;;
23588;SDS011;11972;48.078;11.876;2023-03-21T17:42:36;4.75;;;1.55;;
23588;SDS011;11972;48.078;11.876;2023-03-21T17:46:39;2.30;;;1.23;;
23588;SDS011;11972;48.078;11.876;2023-03-21T17:50:39;2.45;;;0.70;;
23588;SDS011;11972;48.078;11.876;2023-03-21T17:54:39;4.00;;;1.83;;
23588;SDS011;11972;48.078;11.876;2023-03-21T17:58:40;4.32;;;2.30;;
23588;SDS011;11972;48.078;11.876;2023-03-21T18:02:41;2.97;;;2.00;;
23588;SDS011;11972;48.078;11.876;2023-03-21T18:06:41;2.88;;;1.73;;
23588;SDS011;11972;48.078;11.876;2023-03-21T18:10:41;3.10;;;1.13;;
23588;SDS011;11972;48.078;11.876;2023-03-21T18:14:42;2.15;;;0.90;;
23588;SDS011;11972;48.078;11.876;2023-03-21T18:18:45;2.13;;;1.42;;
23588;SDS011;11972;48.078;11.876;2023-03-21T18:22:45;2.90;;;1.20;;
23588;SDS011;11972;48.078;11.876;2023-03-21T18:26:47;3.72;;;2.10;;
23588;SDS011;11972;48.078;11.876;2023-03-21T18:30:48;3.33;;;1.90;;
23588;SDS011;11972;48.078;11.876;2023-03-21T18:34:49;1.92;;;1.20;;
23588;SDS011;11972;48.078;11.876;2023-03-21T18:38:50;4.78;;;1.70;;
23588;SDS011;11972;48.078;11.876;2023-03-21T18:42:51;2.33;;;1.73;;
23588;SDS011;11972;48.078;11.876;2023-03-21T18:46:51;3.50;;;3.00;;
23588;SDS011;11972;48.078;11.876;2023-03-21T18:50:51;2.50;;;2.10;;
23588;SDS011;11972;48.078;11.876;2023-03-21T18:54:52;2.40;;;2.00;;
23588;SDS011;11972;48.078;11.876;2023-03-21T18:58:53;3.47;;;1.45;;
23588;SDS011;11972;48.078;11.876;2023-03-21T19:02:53;4.43;;;2.70;;
23588;SDS011;11972;48.078;11.876;2023-03-21T19:06:56;5.47;;;2.50;;
23588;SDS011;11972;48.078;11.876;2023-03-21T19:10:57;5.95;;;2.85;;
23588;SDS011;11972;48.078;11.876;2023-03-21T19:14:57;7.38;;;4.40;;
23588;SDS011;11972;48.078;11.876;2023-03-21T19:18:58;4.50;;;3.90;;
23588;SDS011;11972;48.078;11.876;2023-03-21T19:22:58;3.22;;;2.88;;
23588;SDS011;11972;48.078;11.876;2023-03-21T19:26:58;3.65;;;2.85;;
23588;SDS011;11972;48.078;11.876;2023-03-21T19:31:03;5.07;;;2.90;;
23588;SDS011;11972;48.078;11.876;2023-03-21T19:35:04;8.50;;;5.57;;
23588;SDS011;11972;48.078;11.876;2023-03-21T19:39:06;12.82;;;9.07;;
23588;SDS011;11972;48.078;11.876;2023-03-21T19:43:07;9.00;;;7.20;;
23588;SDS011;11972;48.078;11.876;2023-03-21T19:47:08;7.20;;;4.82;;
23588;SDS011;11972;48.078;11.876;2023-03-21T19:51:08;6.38;;;5.78;;
23588;SDS011;11972;48.078;11.876;2023-03-21T19:55:09;5.50;;;4.00;;
23588;SDS011;11972;48.078;11.876;2023-03-21T19:59:09;5.10;;;4.35;;
23588;SDS011;11972;48.078;11.876;2023-03-21T20:03:10;5.30;;;4.38;;
23588;SDS011;11972;48.078;11.876;2023-03-21T20:07:10;5.53;;;4.38;;
23588;SDS011;11972;48.078;11.876;2023-03-21T20:11:11;5.18;;;4.10;;
23588;SDS011;11972;48.078;11.876;2023-03-21T20:15:12;5.65;;;3.50;;
23588;SDS011;11972;48.078;11.876;2023-03-21T20:19:13;5.03;;;3.60;;
23588;SDS011;11972;48.078;11.876;2023-03-21T20:23:15;4.97;;;3.22;;
23588;SDS011;11972;48.078;11.876;2023-03-21T20:27:16;5.65;;;4.50;;
23588;SDS011;11972;48.078;11.876;2023-03-21T20:31:22;5.75;;;4.15;;
23588;SDS011;11972;48.078;11.876;2023-03-21T20:35:24;5.50;;;4.63;;
23588;SDS011;11972;48.078;11.876;2023-03-21T20:39:25;8.07;;;4.13;;
23588;SDS011;11972;48.078;11.876;2023-03-21T20:43:26;5.72;;;4.53;;
23588;SDS011;11972;48.078;11.876;2023-03-21T20:47:26;6.07;;;4.07;;
23588;SDS011;11972;48.078;11.876;2023-03-21T20:51:27;10.40;;;4.00;;
23588;SDS011;11972;48.078;11.876;2023-03-21T20:55:27;4.40;;;3.92;;
23588;SDS011;11972;48.078;11.876;2023-03-21T20:59:28;4.80;;;3.95;;
23588;SDS011;11972;48.078;11.876;2023-03-21T21:03:29;5.15;;;4.65;;
23588;SDS011;11972;48.078;11.876;2023-03-21T21:07:37;8.23;;;5.03;;
23588;SDS011;11972;48.078;11.876;2023-03-21T21:11:39;6.28;;;4.90;;
23588;SDS011;11972;48.078;11.876;2023-03-21T21:15:39;7.05;;;4.78;;
23588;SDS011;11972;48.078;11.876;2023-03-21T21:19:39;6.20;;;4.80;;
23588;SDS011;11972;48.078;11.876;2023-03-21T21:23:42;6.78;;;5.25;;
23588;SDS011;11972;48.078;11.876;2023-03-21T21:27:42;6.70;;;4.57;;
23588;SDS011;11972;48.078;11.876;2023-03-21T21:31:45;5.05;;;3.95;;
23588;SDS011;11972;48.078;11.876;2023-03-21T21:35:47;3.67;;;2.40;;
23588;SDS011;11972;48.078;11.876;2023-03-21T21:39:48;3.90;;;2.28;;
23588;SDS011;11972;48.078;11.876;2023-03-21T21:43:48;4.72;;;2.17;;
23588;SDS011;11972;48.078;11.876;2023-03-21T21:47:49;4.25;;;2.80;;
23588;SDS011;11972;48.078;11.876;2023-03-21T21:51:49;2.67;;;2.10;;
23588;SDS011;11972;48.078;11.876;2023-03-21T21:55:50;2.27;;;1.87;;
23588;SDS011;11972;48.078;11.876;2023-03-21T21:59:51;1.35;;;1.20;;
23588;SDS011;11972;48.078;11.876;2023-03-21T22:03:53;2.20;;;1.60;;
23588;SDS011;11972;48.078;11.876;2023-03-21T22:07:56;4.40;;;2.35;;
23588;SDS011;11972;48.078;11.876;2023-03-21T22:11:56;4.25;;;2.95;;
23588;SDS011;11972;48.078;11.876;2023-03-21T22:15:57;7.80;;;3.28;;
23588;SDS011;11972;48.078;11.876;2023-03-21T22:19:57;3.22;;;2.92;;
23588;SDS011;11972;48.078;11.876;2023-03-21T22:23:58;3.05;;;2.75;;
23588;SDS011;11972;48.078;11.876;2023-03-21T22:27:58;3.17;;;2.43;;
23588;SDS011;11972;48.078;11.876;2023-03-21T22:31:58;20.70;;;14.45;;
23588;SDS011;11972;48.078;11.876;2023-03-21T22:35:59;25.35;;;17.20;;
23588;SDS011;11972;48.078;11.876;2023-03-21T22:39:59;7.32;;;3.47;;
23588;SDS011;11972;48.078;11.876;2023-03-21T22:44:00;4.70;;;3.25;;
23588;SDS011;11972;48.078;11.876;2023-03-21T22:48:00;5.90;;;3.22;;
23588;SDS011;11972;48.078;11.876;2023-03-21T22:52:01;8.88;;;7.60;;
23588;SDS011;11972;48.078;11.876;2023-03-21T22:56:03;16.52;;;11.90;;
23588;SDS011;11972;48.078;11.876;2023-03-21T23:00:04;6.13;;;5.03;;
23588;SDS011;11972;48.078;11.876;2023-03-21T23:08:12;6.03;;;5.38;;
23588;SDS011;11972;48.078;11.876;2023-03-21T23:12:12;6.53;;;5.93;;
23588;SDS011;11972;48.078;11.876;2023-03-21T23:16:14;8.32;;;7.47;;
23588;SDS011;11972;48.078;11.876;2023-03-21T23:20:15;6.78;;;5.68;;
23588;SDS011;11972;48.078;11.876;2023-03-21T23:24:16;7.57;;;5.05;;
23588;SDS011;11972;48.078;11.876;2023-03-21T23:28:16;5.20;;;4.40;;
23588;SDS011;11972;48.078;11.876;2023-03-21T23:32:17;10.25;;;6.88;;
23588;SDS011;11972;48.078;11.876;2023-03-21T23:36:18;11.60;;;10.40;;
23588;SDS011;11972;48.078;11.876;2023-03-21T23:40:20;6.43;;;5.80;;
23588;SDS011;11972;48.078;11.876;2023-03-21T23:44:20;5.10;;;4.70;;
23588;SDS011;11972;48.078;11.876;2023-03-21T23:48:20;6.00;;;5.03;;
23588;SDS011;11972;48.078;11.876;2023-03-21T23:52:20;5.38;;;4.88;;
23588;SDS011;11972;48.078;11.876;2023-03-21T23:56:22;4.95;;;4.43;;
